sensor_id;sensor_type;location;lat;lon;timestamp;P1;durP1;ratioP1;P2;durP2;ratioP2
17345;SDS011;8790;53.590;10.002;2022-12-16T00:02:24;26.40;;;16.97;;
17345;SDS011;8790;53.590;10.002;2022-12-16T00:04:57;26.37;;;16.37;;
17345;SDS011;8790;53.590;10.002;2022-12-16T00:07:28;23.33;;;15.10;;
17345;SDS011;8790;53.590;10.002;2022-12-16T00:10:00;24.73;;;16.20;;
17345;SDS011;8790;53.590;10.002;2022-12-16T00:12:32;25.37;;;16.07;;
17345;SDS011;8790;53.590;10.002;2022-12-16T00:15:04;27.63;;;16.53;;
17345;SDS011;8790;53.590;10.002;2022-12-16T00:17:36;26.97;;;17.00;;
17345;SDS011;8790;53.590;10.002;2022-12-16T00:20:10;27.17;;;17.07;;
17345;SDS011;8790;53.590;10.002;2022-12-16T00:22:42;23.43;;;16.23;;
17345;SDS011;8790;53.590;10.002;2022-12-16T00:25:14;24.90;;;16.47;;
17345;SDS011;8790;53.590;10.002;2022-12-16T00:27:46;25.77;;;16.47;;
17345;SDS011;8790;53.590;10.002;2022-12-16T00:30:17;25.70;;;16.47;;
17345;SDS011;8790;53.590;10.002;2022-12-16T00:32:49;26.93;;;15.97;;
17345;SDS011;8790;53.590;10.002;2022-12-16T00:35:22;27.43;;;16.50;;
17345;SDS011;8790;53.590;10.002;2022-12-16T00:37:54;26.53;;;16.93;;
17345;SDS011;8790;53.590;10.002;2022-12-16T00:40:26;25.20;;;17.00;;
17345;SDS011;8790;53.590;10.002;2022-12-16T00:42:58;28.87;;;17.17;;
17345;SDS011;8790;53.590;10.002;2022-12-16T00:45:29;28.67;;;17.00;;
17345;SDS011;8790;53.590;10.002;2022-12-16T00:48:02;26.40;;;16.90;;
17345;SDS011;8790;53.590;10.002;2022-12-16T00:50:35;28.17;;;17.17;;
17345;SDS011;8790;53.590;10.002;2022-12-16T00:53:07;26.53;;;17.43;;
17345;SDS011;8790;53.590;10.002;2022-12-16T00:55:38;29.00;;;17.23;;
17345;SDS011;8790;53.590;10.002;2022-12-16T00:58:10;27.87;;;16.83;;
17345;SDS011;8790;53.590;10.002;2022-12-16T01:00:42;26.07;;;17.13;;
17345;SDS011;8790;53.590;10.002;2022-12-16T01:03:14;27.27;;;16.67;;
17345;SDS011;8790;53.590;10.002;2022-12-16T01:05:47;24.77;;;16.47;;
17345;SDS011;8790;53.590;10.002;2022-12-16T01:08:18;24.23;;;16.27;;
17345;SDS011;8790;53.590;10.002;2022-12-16T01:10:50;28.13;;;18.20;;
17345;SDS011;8790;53.590;10.002;2022-12-16T01:13:23;26.03;;;15.97;;
17345;SDS011;8790;53.590;10.002;2022-12-16T01:15:58;28.40;;;17.17;;
17345;SDS011;8790;53.590;10.002;2022-12-16T01:18:30;26.77;;;16.50;;
17345;SDS011;8790;53.590;10.002;2022-12-16T01:21:04;25.77;;;15.53;;
17345;SDS011;8790;53.590;10.002;2022-12-16T01:23:37;23.43;;;16.67;;
17345;SDS011;8790;53.590;10.002;2022-12-16T01:26:11;27.27;;;16.67;;
17345;SDS011;8790;53.590;10.002;2022-12-16T01:28:46;27.53;;;16.67;;
17345;SDS011;8790;53.590;10.002;2022-12-16T01:31:18;27.13;;;16.27;;
17345;SDS011;8790;53.590;10.002;2022-12-16T01:33:51;26.57;;;16.23;;
17345;SDS011;8790;53.590;10.002;2022-12-16T01:36:24;26.67;;;16.30;;
17345;SDS011;8790;53.590;10.002;2022-12-16T01:38:56;25.80;;;16.80;;
17345;SDS011;8790;53.590;10.002;2022-12-16T01:41:28;25.67;;;16.73;;
17345;SDS011;8790;53.590;10.002;2022-12-16T01:44:10;25.70;;;16.27;;
17345;SDS011;8790;53.590;10.002;2022-12-16T01:46:47;28.93;;;16.40;;
17345;SDS011;8790;53.590;10.002;2022-12-16T01:49:24;25.17;;;16.13;;
17345;SDS011;8790;53.590;10.002;2022-12-16T01:52:15;26.40;;;16.43;;
17345;SDS011;8790;53.590;10.002;2022-12-16T01:54:52;27.40;;;16.70;;
17345;SDS011;8790;53.590;10.002;2022-12-16T01:57:29;26.93;;;16.73;;
17345;SDS011;8790;53.590;10.002;2022-12-16T02:00:06;27.53;;;16.73;;
17345;SDS011;8790;53.590;10.002;2022-12-16T02:02:45;26.10;;;15.77;;
17345;SDS011;8790;53.590;10.002;2022-12-16T02:05:19;24.83;;;16.47;;
17345;SDS011;8790;53.590;10.002;2022-12-16T02:07:55;26.37;;;16.73;;
17345;SDS011;8790;53.590;10.002;2022-12-16T02:10:33;26.53;;;17.43;;
17345;SDS011;8790;53.590;10.002;2022-12-16T02:13:18;25.73;;;16.43;;
17345;SDS011;8790;53.590;10.002;2022-12-16T02:15:58;24.20;;;16.63;;
17345;SDS011;8790;53.590;10.002;2022-12-16T02:18:37;26.63;;;17.30;;
17345;SDS011;8790;53.590;10.002;2022-12-16T02:21:17;26.23;;;16.40;;
17345;SDS011;8790;53.590;10.002;2022-12-16T02:30:35;25.40;;;16.53;;
17345;SDS011;8790;53.590;10.002;2022-12-16T02:33:28;26.93;;;16.40;;
17345;SDS011;8790;53.590;10.002;2022-12-16T02:36:18;25.33;;;16.27;;
17345;SDS011;8790;53.590;10.002;2022-12-16T02:38:58;25.17;;;15.60;;
17345;SDS011;8790;53.590;10.002;2022-12-16T02:41:36;26.50;;;16.27;;
17345;SDS011;8790;53.590;10.002;2022-12-16T02:44:14;25.37;;;16.50;;
17345;SDS011;8790;53.590;10.002;2022-12-16T02:46:53;26.30;;;16.10;;
17345;SDS011;8790;53.590;10.002;2022-12-16T02:49:40;22.73;;;15.67;;
17345;SDS011;8790;53.590;10.002;2022-12-16T02:52:17;26.20;;;15.83;;
17345;SDS011;8790;53.590;10.002;2022-12-16T02:54:52;27.50;;;16.00;;
17345;SDS011;8790;53.590;10.002;2022-12-16T02:57:32;24.47;;;15.37;;
17345;SDS011;8790;53.590;10.002;2022-12-16T03:00:24;25.43;;;15.60;;
17345;SDS011;8790;53.590;10.002;2022-12-16T03:02:58;24.97;;;15.57;;
17345;SDS011;8790;53.590;10.002;2022-12-16T03:05:35;24.43;;;15.50;;
17345;SDS011;8790;53.590;10.002;2022-12-16T03:08:11;25.83;;;16.40;;
17345;SDS011;8790;53.590;10.002;2022-12-16T03:10:49;25.67;;;16.07;;
17345;SDS011;8790;53.590;10.002;2022-12-16T03:13:24;26.07;;;16.43;;
17345;SDS011;8790;53.590;10.002;2022-12-16T03:15:59;29.30;;;16.57;;
17345;SDS011;8790;53.590;10.002;2022-12-16T03:18:34;24.80;;;16.10;;
17345;SDS011;8790;53.590;10.002;2022-12-16T03:21:09;26.30;;;15.90;;
17345;SDS011;8790;53.590;10.002;2022-12-16T03:23:45;27.90;;;16.30;;
17345;SDS011;8790;53.590;10.002;2022-12-16T03:26:23;25.93;;;16.57;;
17345;SDS011;8790;53.590;10.002;2022-12-16T03:28:59;25.33;;;16.57;;
17345;SDS011;8790;53.590;10.002;2022-12-16T03:31:34;26.37;;;16.83;;
17345;SDS011;8790;53.590;10.002;2022-12-16T03:34:13;24.20;;;16.00;;
17345;SDS011;8790;53.590;10.002;2022-12-16T03:36:48;24.60;;;15.53;;
17345;SDS011;8790;53.590;10.002;2022-12-16T03:39:24;23.90;;;15.47;;
17345;SDS011;8790;53.590;10.002;2022-12-16T03:41:56;26.83;;;16.30;;
17345;SDS011;8790;53.590;10.002;2022-12-16T03:44:29;26.40;;;15.97;;
17345;SDS011;8790;53.590;10.002;2022-12-16T03:47:02;24.47;;;15.77;;
17345;SDS011;8790;53.590;10.002;2022-12-16T03:49:35;27.67;;;16.87;;
17345;SDS011;8790;53.590;10.002;2022-12-16T03:52:07;26.63;;;16.30;;
17345;SDS011;8790;53.590;10.002;2022-12-16T03:54:39;27.13;;;16.03;;
17345;SDS011;8790;53.590;10.002;2022-12-16T03:57:10;23.33;;;15.70;;
17345;SDS011;8790;53.590;10.002;2022-12-16T03:59:42;25.47;;;15.83;;
17345;SDS011;8790;53.590;10.002;2022-12-16T04:02:14;29.67;;;16.13;;
17345;SDS011;8790;53.590;10.002;2022-12-16T04:04:47;28.63;;;16.57;;
17345;SDS011;8790;53.590;10.002;2022-12-16T04:07:19;26.13;;;16.33;;
17345;SDS011;8790;53.590;10.002;2022-12-16T04:09:51;23.87;;;16.03;;
17345;SDS011;8790;53.590;10.002;2022-12-16T04:12:22;27.17;;;16.77;;
17345;SDS011;8790;53.590;10.002;2022-12-16T04:15:12;23.73;;;15.93;;
17345;SDS011;8790;53.590;10.002;2022-12-16T04:18:01;25.60;;;15.23;;
17345;SDS011;8790;53.590;10.002;2022-12-16T04:20:52;25.47;;;15.73;;
17345;SDS011;8790;53.590;10.002;2022-12-16T04:23:44;27.63;;;16.23;;
17345;SDS011;8790;53.590;10.002;2022-12-16T04:26:36;28.10;;;16.03;;
17345;SDS011;8790;53.590;10.002;2022-12-16T04:29:22;27.77;;;17.10;;
17345;SDS011;8790;53.590;10.002;2022-12-16T04:31:54;26.83;;;16.17;;
17345;SDS011;8790;53.590;10.002;2022-12-16T04:34:26;27.87;;;16.23;;
17345;SDS011;8790;53.590;10.002;2022-12-16T04:37:00;29.03;;;16.00;;
17345;SDS011;8790;53.590;10.002;2022-12-16T04:39:50;25.73;;;15.13;;
17345;SDS011;8790;53.590;10.002;2022-12-16T04:42:39;24.07;;;15.00;;
17345;SDS011;8790;53.590;10.002;2022-12-16T04:45:34;24.43;;;14.83;;
17345;SDS011;8790;53.590;10.002;2022-12-16T04:48:31;26.57;;;16.07;;
17345;SDS011;8790;53.590;10.002;2022-12-16T04:51:21;25.03;;;16.00;;
17345;SDS011;8790;53.590;10.002;2022-12-16T04:54:11;27.87;;;15.57;;
17345;SDS011;8790;53.590;10.002;2022-12-16T04:57:01;24.23;;;15.90;;
17345;SDS011;8790;53.590;10.002;2022-12-16T04:59:50;23.73;;;15.37;;
17345;SDS011;8790;53.590;10.002;2022-12-16T05:02:39;25.27;;;15.57;;
17345;SDS011;8790;53.590;10.002;2022-12-16T05:05:29;25.47;;;16.80;;
17345;SDS011;8790;53.590;10.002;2022-12-16T05:08:18;27.60;;;16.20;;
17345;SDS011;8790;53.590;10.002;2022-12-16T05:11:09;27.23;;;16.57;;
17345;SDS011;8790;53.590;10.002;2022-12-16T05:13:58;27.33;;;16.77;;
17345;SDS011;8790;53.590;10.002;2022-12-16T05:16:48;24.77;;;16.27;;
17345;SDS011;8790;53.590;10.002;2022-12-16T05:19:37;28.47;;;16.83;;
17345;SDS011;8790;53.590;10.002;2022-12-16T05:22:26;28.37;;;16.47;;
17345;SDS011;8790;53.590;10.002;2022-12-16T05:25:15;25.30;;;15.47;;
17345;SDS011;8790;53.590;10.002;2022-12-16T05:28:06;29.50;;;17.33;;
17345;SDS011;8790;53.590;10.002;2022-12-16T05:30:55;25.63;;;16.07;;
17345;SDS011;8790;53.590;10.002;2022-12-16T05:33:45;26.37;;;16.40;;
17345;SDS011;8790;53.590;10.002;2022-12-16T05:36:34;28.43;;;17.53;;
17345;SDS011;8790;53.590;10.002;2022-12-16T05:39:24;30.60;;;17.47;;
17345;SDS011;8790;53.590;10.002;2022-12-16T05:42:13;28.03;;;16.40;;
17345;SDS011;8790;53.590;10.002;2022-12-16T05:45:04;28.33;;;17.57;;
17345;SDS011;8790;53.590;10.002;2022-12-16T05:47:54;27.70;;;16.97;;
17345;SDS011;8790;53.590;10.002;2022-12-16T05:50:43;26.40;;;16.77;;
17345;SDS011;8790;53.590;10.002;2022-12-16T05:53:32;29.33;;;16.77;;
17345;SDS011;8790;53.590;10.002;2022-12-16T05:56:21;28.33;;;17.23;;
17345;SDS011;8790;53.590;10.002;2022-12-16T05:59:16;24.70;;;16.80;;
17345;SDS011;8790;53.590;10.002;2022-12-16T06:02:07;29.03;;;17.20;;
17345;SDS011;8790;53.590;10.002;2022-12-16T06:04:56;28.93;;;16.97;;
17345;SDS011;8790;53.590;10.002;2022-12-16T06:07:49;26.93;;;17.07;;
17345;SDS011;8790;53.590;10.002;2022-12-16T06:10:38;28.43;;;16.80;;
17345;SDS011;8790;53.590;10.002;2022-12-16T06:13:28;28.63;;;16.30;;
17345;SDS011;8790;53.590;10.002;2022-12-16T06:16:17;26.90;;;16.53;;
17345;SDS011;8790;53.590;10.002;2022-12-16T06:19:08;24.67;;;16.10;;
17345;SDS011;8790;53.590;10.002;2022-12-16T06:21:57;29.40;;;16.20;;
17345;SDS011;8790;53.590;10.002;2022-12-16T06:24:46;28.30;;;17.07;;
17345;SDS011;8790;53.590;10.002;2022-12-16T06:27:35;29.17;;;16.80;;
17345;SDS011;8790;53.590;10.002;2022-12-16T06:30:25;30.80;;;17.43;;
17345;SDS011;8790;53.590;10.002;2022-12-16T06:33:10;27.23;;;16.33;;
17345;SDS011;8790;53.590;10.002;2022-12-16T06:36:01;27.97;;;17.20;;
17345;SDS011;8790;53.590;10.002;2022-12-16T06:38:50;26.57;;;16.80;;
17345;SDS011;8790;53.590;10.002;2022-12-16T06:41:42;27.63;;;17.13;;
17345;SDS011;8790;53.590;10.002;2022-12-16T06:44:31;27.03;;;17.27;;
17345;SDS011;8790;53.590;10.002;2022-12-16T06:47:21;29.83;;;16.77;;
17345;SDS011;8790;53.590;10.002;2022-12-16T06:50:10;28.10;;;17.47;;
17345;SDS011;8790;53.590;10.002;2022-12-16T06:53:00;27.30;;;16.33;;
17345;SDS011;8790;53.590;10.002;2022-12-16T06:55:50;28.00;;;16.23;;
17345;SDS011;8790;53.590;10.002;2022-12-16T06:58:41;32.63;;;17.87;;
17345;SDS011;8790;53.590;10.002;2022-12-16T07:01:31;29.17;;;17.13;;
17345;SDS011;8790;53.590;10.002;2022-12-16T07:04:20;33.13;;;17.30;;
17345;SDS011;8790;53.590;10.002;2022-12-16T07:07:09;26.60;;;17.50;;
17345;SDS011;8790;53.590;10.002;2022-12-16T07:10:00;28.90;;;17.33;;
17345;SDS011;8790;53.590;10.002;2022-12-16T07:12:49;30.70;;;18.30;;
17345;SDS011;8790;53.590;10.002;2022-12-16T07:15:39;29.23;;;17.13;;
17345;SDS011;8790;53.590;10.002;2022-12-16T07:18:28;29.00;;;17.27;;
17345;SDS011;8790;53.590;10.002;2022-12-16T07:21:17;27.33;;;16.43;;
17345;SDS011;8790;53.590;10.002;2022-12-16T07:24:07;32.80;;;18.07;;
17345;SDS011;8790;53.590;10.002;2022-12-16T07:26:57;34.57;;;17.60;;
17345;SDS011;8790;53.590;10.002;2022-12-16T07:29:51;28.37;;;17.57;;
17345;SDS011;8790;53.590;10.002;2022-12-16T07:32:41;26.90;;;17.00;;
17345;SDS011;8790;53.590;10.002;2022-12-16T07:35:30;30.97;;;17.97;;
17345;SDS011;8790;53.590;10.002;2022-12-16T07:38:20;28.37;;;17.47;;
17345;SDS011;8790;53.590;10.002;2022-12-16T07:41:09;30.67;;;18.03;;
17345;SDS011;8790;53.590;10.002;2022-12-16T07:44:00;30.40;;;18.70;;
17345;SDS011;8790;53.590;10.002;2022-12-16T07:46:49;27.90;;;17.47;;
17345;SDS011;8790;53.590;10.002;2022-12-16T07:49:39;28.90;;;17.50;;
17345;SDS011;8790;53.590;10.002;2022-12-16T07:52:28;28.37;;;18.60;;
17345;SDS011;8790;53.590;10.002;2022-12-16T07:55:17;30.23;;;17.43;;
17345;SDS011;8790;53.590;10.002;2022-12-16T07:58:07;33.00;;;17.73;;
17345;SDS011;8790;53.590;10.002;2022-12-16T08:01:00;29.10;;;18.50;;
17345;SDS011;8790;53.590;10.002;2022-12-16T08:03:50;29.47;;;18.00;;
17345;SDS011;8790;53.590;10.002;2022-12-16T08:06:39;29.73;;;17.43;;
17345;SDS011;8790;53.590;10.002;2022-12-16T08:09:28;29.50;;;18.17;;
17345;SDS011;8790;53.590;10.002;2022-12-16T08:12:17;28.53;;;18.10;;
17345;SDS011;8790;53.590;10.002;2022-12-16T08:15:07;33.27;;;18.40;;
17345;SDS011;8790;53.590;10.002;2022-12-16T08:17:58;34.35;;;24.90;;
17345;SDS011;8790;53.590;10.002;2022-12-16T08:20:48;26.90;;;18.87;;
17345;SDS011;8790;53.590;10.002;2022-12-16T08:23:48;28.83;;;18.20;;
17345;SDS011;8790;53.590;10.002;2022-12-16T08:26:37;35.33;;;19.90;;
17345;SDS011;8790;53.590;10.002;2022-12-16T08:29:27;33.93;;;19.53;;
17345;SDS011;8790;53.590;10.002;2022-12-16T08:32:16;34.67;;;19.50;;
17345;SDS011;8790;53.590;10.002;2022-12-16T08:35:07;33.17;;;19.27;;
17345;SDS011;8790;53.590;10.002;2022-12-16T08:37:56;30.37;;;18.93;;
17345;SDS011;8790;53.590;10.002;2022-12-16T08:40:45;31.57;;;19.53;;
17345;SDS011;8790;53.590;10.002;2022-12-16T08:43:35;30.53;;;18.70;;
17345;SDS011;8790;53.590;10.002;2022-12-16T08:46:24;30.97;;;19.80;;
17345;SDS011;8790;53.590;10.002;2022-12-16T08:49:14;33.77;;;19.30;;
17345;SDS011;8790;53.590;10.002;2022-12-16T08:52:04;33.47;;;19.70;;
17345;SDS011;8790;53.590;10.002;2022-12-16T08:54:54;32.93;;;19.80;;
17345;SDS011;8790;53.590;10.002;2022-12-16T08:57:46;33.07;;;20.13;;
17345;SDS011;8790;53.590;10.002;2022-12-16T09:00:40;32.70;;;19.23;;
17345;SDS011;8790;53.590;10.002;2022-12-16T09:03:30;35.00;;;20.67;;
17345;SDS011;8790;53.590;10.002;2022-12-16T09:06:19;33.07;;;20.03;;
17345;SDS011;8790;53.590;10.002;2022-12-16T09:09:10;35.57;;;20.10;;
17345;SDS011;8790;53.590;10.002;2022-12-16T09:11:56;34.00;;;20.13;;
17345;SDS011;8790;53.590;10.002;2022-12-16T09:14:46;30.33;;;20.50;;
17345;SDS011;8790;53.590;10.002;2022-12-16T09:17:35;32.50;;;19.33;;
17345;SDS011;8790;53.590;10.002;2022-12-16T09:20:24;32.03;;;20.00;;
17345;SDS011;8790;53.590;10.002;2022-12-16T09:23:14;34.47;;;20.97;;
17345;SDS011;8790;53.590;10.002;2022-12-16T09:26:05;35.20;;;21.27;;
17345;SDS011;8790;53.590;10.002;2022-12-16T09:28:54;33.00;;;20.90;;
17345;SDS011;8790;53.590;10.002;2022-12-16T09:31:43;32.73;;;19.53;;
17345;SDS011;8790;53.590;10.002;2022-12-16T09:34:32;31.03;;;19.93;;
17345;SDS011;8790;53.590;10.002;2022-12-16T09:37:22;33.87;;;20.03;;
17345;SDS011;8790;53.590;10.002;2022-12-16T09:40:12;33.60;;;20.10;;
17345;SDS011;8790;53.590;10.002;2022-12-16T09:43:07;34.73;;;20.60;;
17345;SDS011;8790;53.590;10.002;2022-12-16T09:46:07;32.70;;;20.73;;
17345;SDS011;8790;53.590;10.002;2022-12-16T09:49:08;33.93;;;20.67;;
17345;SDS011;8790;53.590;10.002;2022-12-16T09:52:08;33.17;;;20.97;;
17345;SDS011;8790;53.590;10.002;2022-12-16T09:55:03;36.77;;;21.67;;
17345;SDS011;8790;53.590;10.002;2022-12-16T09:58:06;36.17;;;21.50;;
17345;SDS011;8790;53.590;10.002;2022-12-16T10:00:54;34.80;;;20.23;;
17345;SDS011;8790;53.590;10.002;2022-12-16T10:03:43;33.10;;;20.67;;
17345;SDS011;8790;53.590;10.002;2022-12-16T10:06:35;37.83;;;21.50;;
17345;SDS011;8790;53.590;10.002;2022-12-16T10:09:32;36.43;;;21.37;;
17345;SDS011;8790;53.590;10.002;2022-12-16T10:12:31;34.53;;;21.27;;
17345;SDS011;8790;53.590;10.002;2022-12-16T10:15:30;30.70;;;21.03;;
17345;SDS011;8790;53.590;10.002;2022-12-16T10:18:26;36.67;;;21.70;;
17345;SDS011;8790;53.590;10.002;2022-12-16T10:21:26;36.17;;;20.77;;
17345;SDS011;8790;53.590;10.002;2022-12-16T10:24:21;38.40;;;22.30;;
17345;SDS011;8790;53.590;10.002;2022-12-16T10:27:23;36.27;;;22.00;;
17345;SDS011;8790;53.590;10.002;2022-12-16T10:30:18;36.57;;;21.20;;
17345;SDS011;8790;53.590;10.002;2022-12-16T10:33:09;35.53;;;21.27;;
17345;SDS011;8790;53.590;10.002;2022-12-16T10:36:01;33.33;;;20.80;;
17345;SDS011;8790;53.590;10.002;2022-12-16T10:38:51;33.27;;;21.13;;
17345;SDS011;8790;53.590;10.002;2022-12-16T10:41:44;36.50;;;21.43;;
17345;SDS011;8790;53.590;10.002;2022-12-16T10:44:37;34.50;;;21.07;;
17345;SDS011;8790;53.590;10.002;2022-12-16T10:47:35;33.87;;;21.13;;
17345;SDS011;8790;53.590;10.002;2022-12-16T10:50:26;37.30;;;21.13;;
17345;SDS011;8790;53.590;10.002;2022-12-16T10:53:15;35.17;;;22.03;;
17345;SDS011;8790;53.590;10.002;2022-12-16T10:56:07;40.77;;;24.13;;
17345;SDS011;8790;53.590;10.002;2022-12-16T10:59:09;38.33;;;22.20;;
17345;SDS011;8790;53.590;10.002;2022-12-16T11:02:00;34.17;;;21.57;;
17345;SDS011;8790;53.590;10.002;2022-12-16T11:04:50;34.80;;;21.37;;
17345;SDS011;8790;53.590;10.002;2022-12-16T11:07:51;35.43;;;20.23;;
17345;SDS011;8790;53.590;10.002;2022-12-16T11:10:41;32.53;;;20.77;;
17345;SDS011;8790;53.590;10.002;2022-12-16T11:13:32;37.53;;;21.70;;
17345;SDS011;8790;53.590;10.002;2022-12-16T11:16:23;33.83;;;20.93;;
17345;SDS011;8790;53.590;10.002;2022-12-16T11:19:17;33.37;;;19.60;;
17345;SDS011;8790;53.590;10.002;2022-12-16T11:25:12;37.93;;;21.80;;
17345;SDS011;8790;53.590;10.002;2022-12-16T11:28:04;33.37;;;21.27;;
17345;SDS011;8790;53.590;10.002;2022-12-16T11:30:59;35.23;;;20.83;;
17345;SDS011;8790;53.590;10.002;2022-12-16T11:33:52;35.63;;;21.33;;
17345;SDS011;8790;53.590;10.002;2022-12-16T11:36:42;35.23;;;21.20;;
17345;SDS011;8790;53.590;10.002;2022-12-16T11:39:47;37.17;;;21.80;;
17345;SDS011;8790;53.590;10.002;2022-12-16T11:42:44;31.93;;;20.60;;
17345;SDS011;8790;53.590;10.002;2022-12-16T11:45:34;34.80;;;20.47;;
17345;SDS011;8790;53.590;10.002;2022-12-16T11:48:27;32.13;;;20.03;;
17345;SDS011;8790;53.590;10.002;2022-12-16T11:51:24;34.73;;;20.93;;
17345;SDS011;8790;53.590;10.002;2022-12-16T11:54:16;39.90;;;22.03;;
17345;SDS011;8790;53.590;10.002;2022-12-16T11:57:14;32.23;;;20.60;;
17345;SDS011;8790;53.590;10.002;2022-12-16T12:00:12;34.60;;;21.70;;
17345;SDS011;8790;53.590;10.002;2022-12-16T12:03:11;36.60;;;22.07;;
17345;SDS011;8790;53.590;10.002;2022-12-16T12:06:05;32.90;;;21.23;;
17345;SDS011;8790;53.590;10.002;2022-12-16T12:09:06;35.70;;;21.77;;
17345;SDS011;8790;53.590;10.002;2022-12-16T12:12:09;39.97;;;22.20;;
17345;SDS011;8790;53.590;10.002;2022-12-16T12:15:16;34.93;;;22.03;;
17345;SDS011;8790;53.590;10.002;2022-12-16T12:18:13;36.53;;;21.60;;
17345;SDS011;8790;53.590;10.002;2022-12-16T12:21:09;36.60;;;22.17;;
17345;SDS011;8790;53.590;10.002;2022-12-16T12:24:09;37.20;;;21.90;;
17345;SDS011;8790;53.590;10.002;2022-12-16T12:27:11;35.40;;;21.40;;
17345;SDS011;8790;53.590;10.002;2022-12-16T12:30:08;34.80;;;21.83;;
17345;SDS011;8790;53.590;10.002;2022-12-16T12:33:06;38.23;;;21.93;;
17345;SDS011;8790;53.590;10.002;2022-12-16T12:36:19;34.47;;;21.60;;
17345;SDS011;8790;53.590;10.002;2022-12-16T12:39:18;36.77;;;21.73;;
17345;SDS011;8790;53.590;10.002;2022-12-16T12:42:14;35.90;;;22.87;;
17345;SDS011;8790;53.590;10.002;2022-12-16T12:45:22;38.60;;;21.60;;
17345;SDS011;8790;53.590;10.002;2022-12-16T12:48:28;38.80;;;21.77;;
17345;SDS011;8790;53.590;10.002;2022-12-16T12:51:24;35.53;;;21.50;;
17345;SDS011;8790;53.590;10.002;2022-12-16T12:54:19;33.30;;;21.57;;
17345;SDS011;8790;53.590;10.002;2022-12-16T12:57:17;36.97;;;21.67;;
17345;SDS011;8790;53.590;10.002;2022-12-16T13:00:13;34.93;;;22.17;;
17345;SDS011;8790;53.590;10.002;2022-12-16T13:03:06;40.60;;;23.13;;
17345;SDS011;8790;53.590;10.002;2022-12-16T13:06:05;36.60;;;22.43;;
17345;SDS011;8790;53.590;10.002;2022-12-16T13:08:55;42.80;;;26.23;;
17345;SDS011;8790;53.590;10.002;2022-12-16T13:15:18;36.77;;;22.37;;
17345;SDS011;8790;53.590;10.002;2022-12-16T13:18:24;37.57;;;22.07;;
17345;SDS011;8790;53.590;10.002;2022-12-16T13:24:37;36.77;;;23.33;;
17345;SDS011;8790;53.590;10.002;2022-12-16T13:27:28;35.10;;;22.13;;
17345;SDS011;8790;53.590;10.002;2022-12-16T13:30:33;38.00;;;23.50;;
17345;SDS011;8790;53.590;10.002;2022-12-16T13:33:23;35.47;;;23.13;;
17345;SDS011;8790;53.590;10.002;2022-12-16T13:36:17;38.07;;;22.73;;
17345;SDS011;8790;53.590;10.002;2022-12-16T13:39:19;36.47;;;22.97;;
17345;SDS011;8790;53.590;10.002;2022-12-16T13:42:30;35.67;;;22.93;;
17345;SDS011;8790;53.590;10.002;2022-12-16T13:52:31;35.47;;;22.17;;
17345;SDS011;8790;53.590;10.002;2022-12-16T13:55:32;37.47;;;23.20;;
17345;SDS011;8790;53.590;10.002;2022-12-16T13:58:29;37.10;;;23.40;;
17345;SDS011;8790;53.590;10.002;2022-12-16T14:01:26;38.60;;;22.50;;
17345;SDS011;8790;53.590;10.002;2022-12-16T14:04:23;39.70;;;23.30;;
17345;SDS011;8790;53.590;10.002;2022-12-16T14:07:14;36.87;;;23.07;;
17345;SDS011;8790;53.590;10.002;2022-12-16T14:10:22;38.17;;;23.10;;
17345;SDS011;8790;53.590;10.002;2022-12-16T14:13:16;37.53;;;23.17;;
17345;SDS011;8790;53.590;10.002;2022-12-16T14:16:12;38.73;;;23.57;;
17345;SDS011;8790;53.590;10.002;2022-12-16T14:19:11;35.50;;;22.30;;
17345;SDS011;8790;53.590;10.002;2022-12-16T14:22:15;36.63;;;23.60;;
17345;SDS011;8790;53.590;10.002;2022-12-16T14:25:14;40.70;;;24.37;;
17345;SDS011;8790;53.590;10.002;2022-12-16T14:28:06;40.57;;;24.40;;
17345;SDS011;8790;53.590;10.002;2022-12-16T14:31:10;38.17;;;23.93;;
17345;SDS011;8790;53.590;10.002;2022-12-16T14:34:03;38.10;;;22.80;;
17345;SDS011;8790;53.590;10.002;2022-12-16T14:36:52;40.47;;;24.30;;
17345;SDS011;8790;53.590;10.002;2022-12-16T14:39:41;40.63;;;24.53;;
17345;SDS011;8790;53.590;10.002;2022-12-16T14:42:31;40.20;;;24.03;;
17345;SDS011;8790;53.590;10.002;2022-12-16T14:45:21;40.03;;;23.93;;
17345;SDS011;8790;53.590;10.002;2022-12-16T14:48:21;39.13;;;23.67;;
17345;SDS011;8790;53.590;10.002;2022-12-16T14:51:20;36.50;;;24.00;;
17345;SDS011;8790;53.590;10.002;2022-12-16T14:54:15;38.93;;;23.60;;
17345;SDS011;8790;53.590;10.002;2022-12-16T14:57:11;39.63;;;24.87;;
17345;SDS011;8790;53.590;10.002;2022-12-16T15:00:13;38.83;;;24.53;;
17345;SDS011;8790;53.590;10.002;2022-12-16T15:03:05;41.23;;;23.97;;
17345;SDS011;8790;53.590;10.002;2022-12-16T15:06:06;40.33;;;25.20;;
17345;SDS011;8790;53.590;10.002;2022-12-16T15:09:00;43.23;;;24.93;;
17345;SDS011;8790;53.590;10.002;2022-12-16T15:11:52;48.20;;;35.13;;
17345;SDS011;8790;53.590;10.002;2022-12-16T15:14:42;42.63;;;28.23;;
17345;SDS011;8790;53.590;10.002;2022-12-16T15:17:34;43.97;;;26.67;;
17345;SDS011;8790;53.590;10.002;2022-12-16T15:20:30;40.43;;;25.20;;
17345;SDS011;8790;53.590;10.002;2022-12-16T15:23:24;37.70;;;23.77;;
17345;SDS011;8790;53.590;10.002;2022-12-16T15:26:16;43.03;;;25.10;;
17345;SDS011;8790;53.590;10.002;2022-12-16T15:32:32;39.47;;;24.13;;
17345;SDS011;8790;53.590;10.002;2022-12-16T15:35:23;42.17;;;25.67;;
17345;SDS011;8790;53.590;10.002;2022-12-16T15:38:17;40.63;;;24.73;;
17345;SDS011;8790;53.590;10.002;2022-12-16T15:41:18;41.87;;;25.50;;
17345;SDS011;8790;53.590;10.002;2022-12-16T15:44:14;42.27;;;25.23;;
17345;SDS011;8790;53.590;10.002;2022-12-16T15:47:04;41.40;;;26.33;;
17345;SDS011;8790;53.590;10.002;2022-12-16T15:49:54;43.27;;;25.33;;
17345;SDS011;8790;53.590;10.002;2022-12-16T15:52:43;41.83;;;24.40;;
17345;SDS011;8790;53.590;10.002;2022-12-16T15:55:52;41.63;;;25.93;;
17345;SDS011;8790;53.590;10.002;2022-12-16T16:02:18;43.50;;;25.97;;
17345;SDS011;8790;53.590;10.002;2022-12-16T16:05:12;44.93;;;26.43;;
17345;SDS011;8790;53.590;10.002;2022-12-16T16:08:02;43.53;;;25.50;;
17345;SDS011;8790;53.590;10.002;2022-12-16T16:10:53;44.20;;;25.03;;
17345;SDS011;8790;53.590;10.002;2022-12-16T16:13:42;42.53;;;25.53;;
17345;SDS011;8790;53.590;10.002;2022-12-16T16:16:35;44.03;;;26.33;;
17345;SDS011;8790;53.590;10.002;2022-12-16T16:19:24;45.03;;;26.90;;
17345;SDS011;8790;53.590;10.002;2022-12-16T16:22:15;41.90;;;25.03;;
17345;SDS011;8790;53.590;10.002;2022-12-16T16:25:07;41.63;;;26.10;;
17345;SDS011;8790;53.590;10.002;2022-12-16T16:28:01;43.50;;;26.47;;
17345;SDS011;8790;53.590;10.002;2022-12-16T16:30:52;40.80;;;26.03;;
17345;SDS011;8790;53.590;10.002;2022-12-16T16:33:47;40.90;;;26.10;;
17345;SDS011;8790;53.590;10.002;2022-12-16T16:36:36;44.57;;;26.17;;
17345;SDS011;8790;53.590;10.002;2022-12-16T16:39:26;42.90;;;26.43;;
17345;SDS011;8790;53.590;10.002;2022-12-16T16:42:15;44.60;;;26.33;;
17345;SDS011;8790;53.590;10.002;2022-12-16T16:45:07;43.00;;;26.53;;
17345;SDS011;8790;53.590;10.002;2022-12-16T16:48:00;43.90;;;26.37;;
17345;SDS011;8790;53.590;10.002;2022-12-16T16:50:54;44.57;;;26.03;;
17345;SDS011;8790;53.590;10.002;2022-12-16T16:53:45;45.23;;;27.00;;